Time;durP1;ratioP1;P1;durP2;ratioP2;P2;SDS_P1;SDS_P2;PMS_P1;PMS_P2;Temp;Humidity;BMP_temperature;BMP_pressure;BME280_temperature;BME280_humidity;BME280_pressure;Samples;Min_cycle;Max_cycle;Signal;HPM_P1;HPM_P2
2021/07/22 00:00:20;;;;;;;8.60;3.47;;;16.90;76.20;;;;;;5037992;28;20028;-81
2021/07/22 00:02:48;;;;;;;6.63;2.85;;;16.90;76.30;;;;;;5055334;28;20036;-81
2021/07/22 00:05:14;;;;;;;3.97;2.60;;;16.90;76.30;;;;;;5057227;28;20021;-80
2021/07/22 00:07:40;;;;;;;9.13;3.30;;;16.80;76.20;;;;;;5055938;28;20036;-83
2021/07/22 00:10:06;;;;;;;7.10;3.05;;;16.90;76.20;;;;;;5056532;28;20025;-83
2021/07/22 00:12:32;;;;;;;6.43;3.15;;;16.80;76.10;;;;;;5056679;28;20044;-82
2021/07/22 00:14:58;;;;;;;7.97;3.75;;;16.80;76.30;;;;;;5067551;28;20025;-84
2021/07/22 00:17:24;;;;;;;4.65;2.97;;;16.80;76.40;;;;;;5055826;28;20025;-82
2021/07/22 00:19:50;;;;;;;5.32;3.33;;;16.80;76.70;;;;;;5055250;28;20099;-81
2021/07/22 00:22:16;;;;;;;7.88;3.55;;;16.70;76.70;;;;;;5056035;28;20057;-82
2021/07/22 00:24:41;;;;;;;5.40;3.20;;;16.70;76.90;;;;;;5054946;28;20052;-81
2021/07/22 00:27:07;;;;;;;6.97;3.25;;;16.70;77.20;;;;;;5047635;28;20078;-81
2021/07/22 00:29:34;;;;;;;5.10;3.70;;;16.60;77.30;;;;;;5055507;28;20107;-82
2021/07/22 00:32:00;;;;;;;4.75;3.22;;;16.60;77.30;;;;;;5037349;28;20028;-82
2021/07/22 00:34:26;;;;;;;3.92;2.92;;;16.50;77.60;;;;;;5055802;28;20025;-82
2021/07/22 00:36:52;;;;;;;9.20;3.83;;;16.50;77.90;;;;;;5055397;28;20028;-82
2021/07/22 00:39:18;;;;;;;4.80;3.38;;;16.50;78.10;;;;;;5058270;28;20056;-81
2021/07/22 00:41:44;;;;;;;5.07;3.05;;;16.50;78.30;;;;;;5054787;28;20049;-82
2021/07/22 00:44:10;;;;;;;8.98;3.95;;;16.50;78.50;;;;;;5061803;28;20028;-81
2021/07/22 00:46:36;;;;;;;5.55;3.40;;;16.40;78.60;;;;;;5067044;28;20021;-82
2021/07/22 00:49:02;;;;;;;6.45;3.67;;;16.40;78.90;;;;;;5054830;28;20056;-82
2021/07/22 00:51:28;;;;;;;7.65;4.28;;;16.40;79.10;;;;;;5055504;28;20119;-81
2021/07/22 00:53:54;;;;;;;8.35;4.25;;;16.30;79.20;;;;;;5070952;28;20037;-83
2021/07/22 00:56:19;;;;;;;9.35;4.03;;;16.30;79.40;;;;;;5076869;28;20024;-82
2021/07/22 00:58:45;;;;;;;6.72;3.58;;;16.30;79.60;;;;;;5077867;28;20017;-82
2021/07/22 01:01:12;;;;;;;8.10;3.88;;;16.30;79.90;;;;;;5074065;28;20067;-82
2021/07/22 01:03:39;;;;;;;8.25;3.63;;;16.30;80.10;;;;;;5055603;28;20387;-81
2021/07/22 01:06:05;;;;;;;7.80;3.88;;;16.20;80.10;;;;;;5054445;28;20514;-82
2021/07/22 01:08:30;;;;;;;6.55;3.42;;;16.20;80.30;;;;;;5054552;28;20437;-82
2021/07/22 01:10:56;;;;;;;8.13;3.35;;;16.20;80.50;;;;;;5054325;28;20094;-82
2021/07/22 01:13:22;;;;;;;8.43;3.97;;;16.10;80.70;;;;;;5055748;28;20087;-81
2021/07/22 01:15:48;;;;;;;6.68;4.00;;;16.20;80.80;;;;;;5036597;28;20013;-83
2021/07/22 01:18:14;;;;;;;4.72;3.55;;;16.20;80.80;;;;;;5048111;28;20029;-84
2021/07/22 01:20:40;;;;;;;7.70;3.58;;;16.20;81.10;;;;;;5056132;28;20052;-85
2021/07/22 01:23:05;;;;;;;6.35;3.33;;;16.10;81.10;;;;;;5055844;28;20021;-83
2021/07/22 01:25:31;;;;;;;5.13;3.35;;;16.10;81.20;;;;;;5056043;28;20017;-84
2021/07/22 01:27:58;;;;;;;3.75;2.92;;;16.10;81.30;;;;;;5041570;28;20033;-84
2021/07/22 01:30:24;;;;;;;6.38;3.88;;;16.10;81.30;;;;;;5054848;28;20017;-85
2021/07/22 01:32:52;;;;;;;9.00;4.03;;;16.10;81.30;;;;;;5054479;28;20069;-84
2021/07/22 01:35:18;;;;;;;4.38;2.97;;;16.10;81.20;;;;;;5036608;28;20505;-84
2021/07/22 01:37:44;;;;;;;5.85;2.80;;;16.10;80.90;;;;;;5055376;28;20017;-84
2021/07/22 01:40:12;;;;;;;13.25;2.63;;;16.10;80.80;;;;;;5051263;28;20021;-84
2021/07/22 01:42:47;;;;;;;4.15;3.10;;;16.20;79.80;;;;;;5052147;28;20013;-85
2021/07/22 01:45:13;;;;;;;7.38;3.35;;;16.20;79.20;;;;;;5033583;28;20142;-84
2021/07/22 01:47:40;;;;;;;3.60;2.72;;;16.20;79.30;;;;;;5054254;28;20024;-84
2021/07/22 01:50:06;;;;;;;4.68;2.55;;;16.20;78.60;;;;;;5053716;28;20475;-84
2021/07/22 01:52:32;;;;;;;8.70;2.95;;;16.20;78.10;;;;;;5053625;28;20029;-84
2021/07/22 01:54:58;;;;;;;5.82;2.90;;;16.30;77.90;;;;;;5054059;28;20028;-83
2021/07/22 01:57:25;;;;;;;6.28;2.53;;;16.30;77.90;;;;;;5054012;28;20437;-82
2021/07/22 01:59:51;;;;;;;5.03;2.85;;;16.30;77.80;;;;;;5054697;28;20028;-84
2021/07/22 02:02:17;;;;;;;6.80;3.05;;;16.30;77.40;;;;;;5053538;28;20025;-82
2021/07/22 02:04:43;;;;;;;4.28;2.88;;;16.20;76.90;;;;;;5053372;28;20027;-83
2021/07/22 02:07:11;;;;;;;4.75;2.70;;;16.30;76.80;;;;;;5053838;28;20121;-83
2021/07/22 02:09:38;;;;;;;6.22;2.65;;;16.30;76.30;;;;;;5053961;28;20021;-82
2021/07/22 02:12:04;;;;;;;7.40;3.42;;;16.30;76.30;;;;;;5054496;28;20033;-82
2021/07/22 02:14:31;;;;;;;4.32;2.30;;;16.30;75.90;;;;;;5036905;28;20137;-82
2021/07/22 02:16:56;;;;;;;5.00;3.00;;;16.30;75.90;;;;;;5059157;28;20029;-82
2021/07/22 02:19:22;;;;;;;4.32;2.85;;;16.30;75.40;;;;;;5055045;28;20356;-82
2021/07/22 02:21:48;;;;;;;6.05;2.78;;;16.30;75.10;;;;;;5056470;28;20032;-83
2021/07/22 02:24:15;;;;;;;8.18;3.28;;;16.30;75.30;;;;;;5040674;28;20052;-83
2021/07/22 02:26:41;;;;;;;7.03;2.83;;;16.30;74.70;;;;;;5059832;28;20068;-82
2021/07/22 02:29:07;;;;;;;5.60;2.67;;;16.30;74.80;;;;;;5046172;28;20421;-83
2021/07/22 02:31:34;;;;;;;4.32;2.35;;;16.30;74.80;;;;;;5060276;28;20079;-83
2021/07/22 02:34:00;;;;;;;4.10;2.33;;;16.30;73.80;;;;;;5054730;28;20043;-83
2021/07/22 02:36:26;;;;;;;6.10;2.78;;;16.20;73.90;;;;;;5053636;28;20021;-83
2021/07/22 02:38:52;;;;;;;3.80;2.03;;;16.30;73.90;;;;;;5035482;28;20032;-84
2021/07/22 02:41:18;;;;;;;5.20;2.67;;;16.30;73.50;;;;;;5053246;28;20104;-84
2021/07/22 02:43:44;;;;;;;2.95;2.50;;;16.30;73.30;;;;;;5047795;28;20080;-82
2021/07/22 02:46:10;;;;;;;6.93;2.85;;;16.40;73.00;;;;;;5053343;28;20016;-83
2021/07/22 02:48:37;;;;;;;6.30;2.63;;;16.40;72.70;;;;;;5041997;28;20482;-83
2021/07/22 02:51:04;;;;;;;3.72;1.80;;;16.50;72.10;;;;;;5053981;28;20021;-83
2021/07/22 02:53:30;;;;;;;6.93;2.47;;;16.40;71.60;;;;;;5053650;28;20025;-84
2021/07/22 02:56:00;;;;;;;3.20;2.10;;;16.40;72.00;;;;;;5054309;28;20032;-83
2021/07/22 02:58:26;;;;;;;5.97;1.80;;;16.40;71.70;;;;;;5065079;28;20025;-83
2021/07/22 03:00:52;;;;;;;4.50;2.10;;;16.50;71.00;;;;;;5057418;28;20032;-82
2021/07/22 03:03:21;;;;;;;4.10;2.38;;;16.50;70.90;;;;;;5074288;28;20438;-83
2021/07/22 03:05:47;;;;;;;5.80;2.67;;;16.50;70.80;;;;;;5060580;28;20025;-83
2021/07/22 03:08:13;;;;;;;3.65;1.80;;;16.50;71.10;;;;;;5058677;28;20083;-82
2021/07/22 03:10:40;;;;;;;2.95;1.90;;;16.60;69.90;;;;;;5058425;28;20492;-83
2021/07/22 03:13:06;;;;;;;4.35;1.98;;;16.60;69.30;;;;;;5056174;28;20119;-83
2021/07/22 03:15:32;;;;;;;3.97;2.10;;;16.50;69.40;;;;;;5058168;28;20104;-82
2021/07/22 03:17:58;;;;;;;5.18;2.20;;;16.50;69.50;;;;;;5058827;28;20025;-84
2021/07/22 03:20:24;;;;;;;2.80;1.90;;;16.40;69.30;;;;;;5066275;28;20097;-83
2021/07/22 03:22:50;;;;;;;4.30;2.30;;;16.50;69.00;;;;;;5067377;28;20029;-82
2021/07/22 03:25:16;;;;;;;4.25;2.03;;;16.50;69.40;;;;;;5057029;28;20021;-82
2021/07/22 03:27:42;;;;;;;2.60;1.83;;;16.60;68.80;;;;;;5056382;28;20036;-83
2021/07/22 03:30:09;;;;;;;4.20;2.15;;;16.70;68.80;;;;;;5056680;28;20021;-83
2021/07/22 03:32:37;;;;;;;2.63;1.70;;;16.70;68.10;;;;;;5056795;28;20383;-82
2021/07/22 03:35:04;;;;;;;2.63;1.35;;;16.80;67.50;;;;;;5055140;28;20025;-83
2021/07/22 03:37:31;;;;;;;3.95;1.80;;;16.80;66.70;;;;;;5053417;28;20475;-83
2021/07/22 03:39:57;;;;;;;2.08;1.20;;;16.90;66.10;;;;;;5055970;28;20021;-83
2021/07/22 03:42:27;;;;;;;5.13;1.80;;;17.00;66.30;;;;;;5038279;28;20119;-82
2021/07/22 03:44:53;;;;;;;2.70;1.60;;;17.20;65.40;;;;;;5055943;28;20036;-83
2021/07/22 03:47:19;;;;;;;2.88;1.45;;;17.40;64.80;;;;;;5056432;28;20025;-82
2021/07/22 03:49:45;;;;;;;4.10;1.45;;;17.40;64.10;;;;;;5055784;28;20056;-83
2021/07/22 03:52:12;;;;;;;4.28;1.60;;;17.40;63.90;;;;;;5056504;28;20455;-84
2021/07/22 03:54:39;;;;;;;1.85;1.20;;;17.30;63.10;;;;;;5074203;28;20031;-83
2021/07/22 03:57:05;;;;;;;3.45;1.73;;;17.20;63.10;;;;;;5061087;28;20458;-83
2021/07/22 03:59:31;;;;;;;2.92;1.33;;;17.20;63.40;;;;;;5055903;28;20352;-83
2021/07/22 04:01:57;;;;;;;3.50;1.15;;;17.20;62.90;;;;;;5055988;28;20025;-82
2021/07/22 04:04:23;;;;;;;2.58;1.40;;;17.20;62.60;;;;;;5055729;28;20017;-82
2021/07/22 04:06:49;;;;;;;3.70;1.50;;;17.20;62.90;;;;;;5055912;28;20021;-82
2021/07/22 04:09:15;;;;;;;2.00;1.10;;;17.30;62.70;;;;;;5055407;28;20344;-83
2021/07/22 04:11:41;;;;;;;3.22;1.70;;;17.30;61.90;;;;;;5059589;28;20031;-85
2021/07/22 04:14:06;;;;;;;4.85;1.42;;;17.30;62.10;;;;;;5059444;28;20056;-85
2021/07/22 04:16:37;;;;;;;3.20;1.40;;;17.40;61.60;;;;;;5055475;28;20470;-84
2021/07/22 04:19:03;;;;;;;3.83;1.48;;;17.40;61.30;;;;;;5065133;28;20017;-84
2021/07/22 04:21:30;;;;;;;2.80;1.50;;;17.40;61.80;;;;;;5047449;28;20402;-84
2021/07/22 04:23:56;;;;;;;3.60;1.33;;;17.50;61.30;;;;;;5056004;28;20074;-84
2021/07/22 04:26:22;;;;;;;1.98;1.15;;;17.60;61.10;;;;;;5058892;28;20095;-83
2021/07/22 04:28:50;;;;;;;3.78;1.85;;;17.60;59.90;;;;;;5045516;28;20482;-85
2021/07/22 04:31:16;;;;;;;4.90;1.30;;;17.70;60.10;;;;;;5058007;28;20071;-85
2021/07/22 04:33:43;;;;;;;2.67;1.27;;;17.80;59.80;;;;;;5056807;28;20097;-84
2021/07/22 04:36:09;;;;;;;2.88;1.00;;;17.90;59.20;;;;;;5060685;28;20246;-86
2021/07/22 04:38:37;;;;;;;3.58;1.27;;;18.00;59.50;;;;;;5061390;28;20032;-85
2021/07/22 04:41:06;;;;;;;3.15;1.67;;;18.00;59.30;;;;;;5056217;28;20025;-83
2021/07/22 04:43:33;;;;;;;4.38;1.65;;;18.10;58.50;;;;;;5056015;28;20029;-84
2021/07/22 04:46:05;;;;;;;4.03;1.48;;;18.00;58.00;;;;;;5059625;28;20024;-83
2021/07/22 04:48:32;;;;;;;9.13;1.75;;;18.00;58.30;;;;;;5060352;28;20057;-84
2021/07/22 04:51:07;;;;;;;4.07;1.42;;;18.00;59.00;;;;;;5058255;28;20414;-85
2021/07/22 04:53:34;;;;;;;3.33;1.58;;;18.10;59.10;;;;;;5059081;28;20041;-84
2021/07/22 04:56:00;;;;;;;3.78;1.63;;;18.10;58.60;;;;;;5070727;28;20035;-84
2021/07/22 04:58:26;;;;;;;2.53;1.60;;;18.10;58.50;;;;;;5058389;28;20025;-83
2021/07/22 05:00:53;;;;;;;2.10;1.20;;;18.20;58.70;;;;;;5055279;28;20466;-85
2021/07/22 05:03:19;;;;;;;4.95;1.60;;;18.30;58.10;;;;;;5055194;28;20013;-86
2021/07/22 05:05:45;;;;;;;1.67;1.10;;;18.40;57.70;;;;;;5056617;28;20125;-84
2021/07/22 05:08:11;;;;;;;1.58;1.02;;;18.60;57.10;;;;;;5058053;28;20025;-86
2021/07/22 05:10:36;;;;;;;4.93;1.17;;;19.10;56.20;;;;;;5054652;28;20083;-85
2021/07/22 05:13:06;;;;;;;3.47;1.60;;;19.80;54.30;;;;;;5054639;28;20033;-84
2021/07/22 05:15:32;;;;;;;3.72;1.73;;;20.60;52.90;;;;;;5053012;28;20096;-85
2021/07/22 05:17:58;;;;;;;3.15;1.23;;;21.60;50.70;;;;;;5052947;28;20147;-82
2021/07/22 05:20:24;;;;;;;4.90;1.45;;;22.40;48.90;;;;;;5051541;28;20048;-82
2021/07/22 05:22:50;;;;;;;2.78;1.13;;;23.00;47.50;;;;;;5057271;28;20013;-82
2021/07/22 05:25:16;;;;;;;2.92;1.27;;;23.50;45.90;;;;;;5040363;28;20056;-83
2021/07/22 05:27:42;;;;;;;3.38;1.25;;;23.70;44.60;;;;;;5058266;28;20096;-83
2021/07/22 05:30:08;;;;;;;3.08;1.38;;;23.70;44.70;;;;;;5059636;28;20044;-85
2021/07/22 05:32:34;;;;;;;2.95;1.70;;;24.20;43.30;;;;;;5039183;28;20098;-84
2021/07/22 05:35:00;;;;;;;3.45;1.20;;;24.40;42.80;;;;;;5058011;28;20016;-85
2021/07/22 05:37:25;;;;;;;2.90;1.67;;;24.80;41.90;;;;;;5039313;28;20077;-83
2021/07/22 05:39:51;;;;;;;4.60;0.95;;;25.00;40.80;;;;;;5054083;28;20020;-84
2021/07/22 05:42:17;;;;;;;2.15;1.08;;;25.30;40.50;;;;;;5036362;28;20028;-85
2021/07/22 05:44:43;;;;;;;3.08;1.38;;;25.50;39.70;;;;;;5054052;28;20017;-82
2021/07/22 05:47:12;;;;;;;3.30;1.27;;;25.60;39.70;;;;;;5035484;28;20029;-85
2021/07/22 05:49:38;;;;;;;3.88;1.20;;;26.00;39.00;;;;;;5052519;28;20468;-86
2021/07/22 05:52:04;;;;;;;4.07;1.17;;;26.70;37.90;;;;;;5053328;28;20021;-84
2021/07/22 05:54:30;;;;;;;4.45;1.13;;;27.10;36.80;;;;;;5054396;28;20104;-84
2021/07/22 05:56:56;;;;;;;4.43;1.02;;;27.10;36.20;;;;;;5053984;28;20106;-85
2021/07/22 05:59:22;;;;;;;2.63;1.15;;;26.90;36.70;;;;;;5053939;28;20103;-84
2021/07/22 06:01:48;;;;;;;1.23;0.95;;;27.10;36.40;;;;;;5037988;28;20036;-84
2021/07/22 06:04:13;;;;;;;2.00;0.98;;;27.10;35.90;;;;;;5025834;28;20025;-84
2021/07/22 06:06:42;;;;;;;3.63;1.00;;;27.20;35.50;;;;;;5031077;28;20014;-82
2021/07/22 06:09:09;;;;;;;7.45;1.55;;;27.70;35.70;;;;;;5049507;28;20032;-87
2021/07/22 06:11:35;;;;;;;5.22;1.80;;;28.10;34.80;;;;;;5036325;28;20390;-82
2021/07/22 06:14:01;;;;;;;3.92;1.23;;;29.40;34.50;;;;;;5053986;28;20041;-85
2021/07/22 06:16:27;;;;;;;2.67;1.10;;;30.70;32.90;;;;;;5055581;28;20519;-85
2021/07/22 06:18:53;;;;;;;2.63;0.85;;;31.70;31.80;;;;;;5060527;28;20066;-85
2021/07/22 06:21:19;;;;;;;4.20;1.27;;;32.50;30.50;;;;;;5054401;28;20033;-85
2021/07/22 06:23:45;;;;;;;1.07;0.60;;;33.10;29.40;;;;;;5054131;28;20048;-85
2021/07/22 06:26:11;;;;;;;3.13;1.00;;;33.00;29.10;;;;;;5053859;28;20048;-85
2021/07/22 06:28:38;;;;;;;3.00;1.43;;;32.70;29.00;;;;;;5055366;28;20028;-84
2021/07/22 06:31:03;;;;;;;4.13;1.00;;;32.20;29.40;;;;;;5053015;28;20281;-83
2021/07/22 06:33:29;;;;;;;2.35;1.02;;;32.40;29.60;;;;;;5053881;28;20394;-85
2021/07/22 06:35:55;;;;;;;4.00;0.90;;;32.90;28.90;;;;;;5053604;28;20375;-84
2021/07/22 06:38:21;;;;;;;2.93;0.77;;;33.30;28.10;;;;;;5048631;28;20390;-82
2021/07/22 06:40:48;;;;;;;1.40;0.77;;;33.00;27.00;;;;;;5046844;28;20065;-80
2021/07/22 06:43:14;;;;;;;1.33;0.65;;;32.40;27.30;;;;;;5032582;28;20029;-83
2021/07/22 06:45:46;;;;;;;3.53;0.60;;;32.20;27.30;;;;;;5055897;28;20020;-85
2021/07/22 06:48:12;;;;;;;1.75;0.70;;;32.70;27.80;;;;;;5073310;23;20190;-84
2021/07/22 06:50:38;;;;;;;6.70;0.80;;;33.20;27.20;;;;;;5048568;28;20100;-84
2021/07/22 06:53:05;;;;;;;1.53;0.70;;;33.50;26.50;;;;;;5052924;28;20036;-83
2021/07/22 06:55:31;;;;;;;;;;;33.30;26.70;;;;;;5053623;28;20048;-83
2021/07/22 06:58:05;;;;;;;2.22;0.80;;;33.20;27.70;;;;;;5052889;28;19926;-83
2021/07/22 07:00:32;;;;;;;2.78;0.60;;;33.60;26.00;;;;;;5051574;28;20029;-83
2021/07/22 07:03:04;;;;;;;2.88;0.77;;;33.20;25.40;;;;;;5052988;28;20096;-84
2021/07/22 07:05:30;;;;;;;1.13;0.60;;;32.90;25.80;;;;;;5053195;28;20033;-84
2021/07/22 07:07:56;;;;;;;2.15;1.20;;;33.60;25.60;;;;;;5052740;28;20017;-84
2021/07/22 07:10:23;;;;;;;1.63;0.60;;;34.20;25.30;;;;;;5051964;28;20036;-83
2021/07/22 07:12:50;;;;;;;1.95;0.70;;;34.20;25.10;;;;;;5053091;28;20025;-81
2021/07/22 07:15:16;;;;;;;2.40;0.65;;;34.10;25.00;;;;;;5053223;28;20017;-86
2021/07/22 07:17:42;;;;;;;1.98;0.80;;;34.10;25.00;;;;;;5050523;28;20425;-82
2021/07/22 07:20:08;;;;;;;3.90;0.73;;;33.30;25.40;;;;;;5053589;28;20021;-83
2021/07/22 07:22:34;;;;;;;4.90;1.13;;;33.30;25.80;;;;;;5053208;28;20017;-83
2021/07/22 07:25:00;;;;;;;8.13;3.20;;;33.80;25.60;;;;;;5053320;28;20120;-82
2021/07/22 07:27:26;;;;;;;1.10;0.70;;;34.20;26.00;;;;;;5054050;28;20372;-84
2021/07/22 07:29:52;;;;;;;5.07;1.23;;;34.70;25.20;;;;;;5053294;28;20100;-82
2021/07/22 07:32:18;;;;;;;5.43;1.33;;;34.70;25.80;;;;;;5056390;28;20328;-84
2021/07/22 07:34:44;;;;;;;4.87;1.53;;;35.70;25.60;;;;;;5060115;28;20060;-81
2021/07/22 07:37:09;;;;;;;4.40;0.80;;;36.40;25.20;;;;;;5066186;28;20057;-83
2021/07/22 07:39:35;;;;;;;7.07;1.73;;;35.80;25.10;;;;;;5064141;28;20037;-83
2021/07/22 07:42:02;;;;;;;3.50;0.68;;;35.80;25.40;;;;;;5058987;28;20021;-82
2021/07/22 07:44:28;;;;;;;1.08;0.70;;;35.70;25.00;;;;;;5054488;28;20059;-83
2021/07/22 07:46:54;;;;;;;2.60;0.77;;;34.80;25.20;;;;;;5051759;28;20095;-84
2021/07/22 07:49:20;;;;;;;2.13;1.07;;;34.30;25.70;;;;;;5056553;28;20029;-85
2021/07/22 07:51:45;;;;;;;1.17;0.60;;;34.40;25.60;;;;;;5059942;28;20033;-85
2021/07/22 07:54:12;;;;;;;1.97;0.60;;;34.60;25.40;;;;;;5058689;28;20040;-85
2021/07/22 07:56:38;;;;;;;1.63;0.75;;;34.70;25.40;;;;;;5057056;28;20051;-82
2021/07/22 07:59:04;;;;;;;2.78;0.90;;;35.00;25.40;;;;;;5056402;28;20032;-86
2021/07/22 08:01:30;;;;;;;2.80;0.90;;;36.30;25.30;;;;;;5038376;28;20025;-83
2021/07/22 08:04:00;;;;;;;2.65;0.60;;;37.10;24.80;;;;;;5055744;28;20343;-82
2021/07/22 08:06:25;;;;;;;3.10;0.80;;;37.00;24.20;;;;;;5038521;28;20047;-83
2021/07/22 08:08:51;;;;;;;2.75;0.70;;;37.00;24.40;;;;;;5056475;28;20021;-84
2021/07/22 08:11:18;;;;;;;2.00;0.70;;;36.80;24.30;;;;;;5057355;28;20056;-83
2021/07/22 08:13:44;;;;;;;;;;;36.40;24.20;;;;;;5039885;28;20032;-84
2021/07/22 08:16:14;;;;;;;;;;;35.90;24.80;;;;;;5056966;28;20019;-84
2021/07/22 08:18:40;;;;;;;1.65;0.68;;;35.70;25.10;;;;;;5056787;28;19911;-83
2021/07/22 08:21:06;;;;;;;1.37;0.50;;;35.60;24.40;;;;;;5038178;28;20111;-84
2021/07/22 08:23:32;;;;;;;8.15;1.15;;;36.40;24.40;;;;;;5057246;28;20266;-82
2021/07/22 08:25:58;;;;;;;2.45;0.88;;;36.80;24.60;;;;;;5056286;28;20029;-83
2021/07/22 08:28:24;;;;;;;3.53;1.00;;;37.50;24.40;;;;;;5055939;28;20088;-83
2021/07/22 08:30:50;;;;;;;7.22;1.15;;;37.50;24.30;;;;;;5056547;28;20021;-83
2021/07/22 08:33:22;;;;;;;2.10;0.82;;;38.00;24.20;;;;;;5055732;28;20037;-86
2021/07/22 08:35:48;;;;;;;3.33;0.85;;;38.50;23.80;;;;;;5037846;28;20025;-84
2021/07/22 08:38:13;;;;;;;5.43;1.00;;;38.60;23.60;;;;;;5055655;28;20024;-83
2021/07/22 08:40:43;;;;;;;8.75;1.30;;;38.20;23.80;;;;;;5055819;28;20056;-83
2021/07/22 08:43:09;;;;;;;7.60;1.00;;;38.40;24.00;;;;;;5038658;28;20025;-80
2021/07/22 08:45:36;;;;;;;7.30;1.30;;;39.00;24.10;;;;;;5061798;28;20021;-82
2021/07/22 08:48:02;;;;;;;1.27;0.70;;;39.00;24.00;;;;;;5057901;28;20540;-84
2021/07/22 08:50:28;;;;;;;4.75;1.13;;;38.80;24.40;;;;;;5055368;28;20467;-84
2021/07/22 08:52:54;;;;;;;4.20;1.27;;;39.00;23.90;;;;;;5037130;28;20490;-83
2021/07/22 08:55:21;;;;;;;2.45;0.93;;;39.10;23.90;;;;;;5055367;28;20023;-83
2021/07/22 08:57:48;;;;;;;5.57;0.95;;;39.30;23.80;;;;;;5041538;28;20025;-85
2021/07/22 09:00:16;;;;;;;1.55;0.85;;;38.80;23.80;;;;;;5043366;28;20056;-84
2021/07/22 09:02:43;;;;;;;3.25;1.02;;;38.60;24.20;;;;;;5058711;28;20025;-85
2021/07/22 09:05:09;;;;;;;;;;;39.20;24.10;;;;;;5039998;28;20075;-83
2021/07/22 09:07:35;;;;;;;7.85;1.25;;;39.80;24.80;;;;;;5056015;28;19905;-83
2021/07/22 09:10:04;;;;;;;3.85;1.33;;;40.20;23.20;;;;;;5037483;28;20115;-83
2021/07/22 09:12:43;;;;;;;4.82;1.13;;;41.20;22.80;;;;;;5055091;28;20025;-83
2021/07/22 09:15:24;;;;;;;4.10;0.98;;;41.50;22.70;;;;;;5027392;28;20033;-84
2021/07/22 09:17:53;;;;;;;5.43;2.03;;;41.00;22.50;;;;;;5037105;28;20110;-83
2021/07/22 09:20:30;;;;;;;2.72;0.90;;;39.80;23.00;;;;;;5056117;28;20036;-83
2021/07/22 09:22:57;;;;;;;3.13;1.08;;;39.20;23.00;;;;;;5055669;28;20029;-85
2021/07/22 09:25:44;;;;;;;2.20;0.82;;;38.00;23.20;;;;;;5039818;28;20021;-85
2021/07/22 09:28:16;;;;;;;2.50;0.82;;;37.60;23.50;;;;;;5057518;28;20029;-83
2021/07/22 09:31:04;;;;;;;4.65;1.00;;;37.40;23.60;;;;;;5059944;28;20031;-84
2021/07/22 09:33:36;;;;;;;1.95;1.02;;;37.10;24.10;;;;;;5042221;28;20025;-85
2021/07/22 09:36:02;;;;;;;4.22;0.93;;;37.10;24.10;;;;;;5036878;28;20371;-83
2021/07/22 09:38:28;;;;;;;;;;;36.30;24.10;;;;;;5056194;28;20055;-85
2021/07/22 09:40:54;;;;;;;;;;;36.10;24.80;;;;;;5056108;28;19931;-84
2021/07/22 09:43:36;;;;;;;;;;;36.10;24.40;;;;;;5037328;28;20270;-84
2021/07/22 09:46:02;;;;;;;4.30;1.02;;;35.90;24.70;;;;;;5054730;28;20407;-83
2021/07/22 09:48:28;;;;;;;2.35;1.02;;;36.40;24.40;;;;;;5054124;28;20080;-84
2021/07/22 09:50:54;;;;;;;2.20;1.20;;;36.80;24.10;;;;;;5055101;28;20531;-83
2021/07/22 09:53:20;;;;;;;1.90;0.70;;;36.20;24.50;;;;;;5055055;28;20391;-85
2021/07/22 09:55:47;;;;;;;3.42;1.35;;;36.30;24.10;;;;;;5036997;28;20120;-86
2021/07/22 09:58:13;;;;;;;2.03;1.15;;;36.30;24.10;;;;;;5037234;28;20025;-85
2021/07/22 10:00:48;;;;;;;3.13;1.05;;;35.90;24.00;;;;;;5054711;28;20355;-85
2021/07/22 10:03:16;;;;;;;3.45;1.05;;;35.40;24.30;;;;;;5056136;28;20028;-85
2021/07/22 10:05:52;;;;;;;2.13;0.80;;;35.20;24.40;;;;;;5055476;28;20036;-85
2021/07/22 10:08:19;;;;;;;2.28;0.73;;;35.10;24.70;;;;;;5058087;28;20114;-86
2021/07/22 10:10:52;;;;;;;2.78;1.05;;;34.70;24.60;;;;;;5038937;28;20025;-84
2021/07/22 10:13:36;;;;;;;4.18;1.10;;;34.50;24.60;;;;;;5036547;28;20033;-85
2021/07/22 10:16:07;;;;;;;1.63;0.60;;;34.80;24.90;;;;;;5054330;28;20032;-84
2021/07/22 10:18:36;;;;;;;2.08;1.15;;;34.90;24.50;;;;;;5054475;28;20071;-85
2021/07/22 10:21:03;;;;;;;2.50;1.05;;;34.10;23.70;;;;;;5036726;28;20032;-85
2021/07/22 10:23:30;;;;;;;1.48;1.00;;;33.00;24.80;;;;;;5054252;28;20009;-84
2021/07/22 10:25:56;;;;;;;;;;;32.50;24.80;;;;;;5037408;28;20025;-84
2021/07/22 10:28:23;;;;;;;2.33;0.88;;;33.10;25.20;;;;;;5054716;28;19908;-84
2021/07/22 10:30:49;;;;;;;4.03;1.35;;;33.70;24.70;;;;;;5043215;28;20483;-85
2021/07/22 10:33:20;;;;;;;1.23;0.70;;;33.90;24.60;;;;;;5052951;28;20453;-84
2021/07/22 10:35:50;;;;;;;1.45;0.77;;;32.70;24.50;;;;;;5054776;28;20057;-84
2021/07/22 10:38:27;;;;;;;2.33;0.75;;;30.80;25.90;;;;;;5057616;28;20092;-85
2021/07/22 10:41:03;;;;;;;1.15;0.90;;;29.00;27.20;;;;;;5057821;28;20017;-84
2021/07/22 10:43:34;;;;;;;1.75;0.88;;;27.30;28.70;;;;;;5059182;28;20069;-85
2021/07/22 10:46:02;;;;;;;0.93;0.55;;;26.20;30.30;;;;;;5046430;28;20404;-84
2021/07/22 10:48:28;;;;;;;;;;;25.50;31.70;;;;;;5053587;28;20048;-83
2021/07/22 10:50:54;;;;;;;2.78;0.50;;;24.90;30.70;;;;;;5056878;28;19956;-84
2021/07/22 10:53:45;;;;;;;2.45;1.20;;;24.50;33.60;;;;;;5055645;28;20064;-83
2021/07/22 10:56:26;;;;;;;5.13;1.33;;;24.00;33.60;;;;;;5036902;28;20026;-84
2021/07/22 10:58:58;;;;;;;14.68;2.50;;;23.80;33.70;;;;;;5038844;28;20544;-84
2021/07/22 11:01:43;;;;;;;3.35;1.55;;;23.70;33.60;;;;;;5055191;28;20055;-85
2021/07/22 11:04:09;;;;;;;4.30;1.27;;;23.40;34.50;;;;;;5054138;28;20013;-85
2021/07/22 11:07:03;;;;;;;6.68;0.90;;;23.20;35.80;;;;;;5054820;28;20051;-86
2021/07/22 11:09:42;;;;;;;2.75;1.00;;;22.90;36.00;;;;;;5056204;28;20380;-83
2021/07/22 11:12:34;;;;;;;5.80;0.98;;;22.60;36.10;;;;;;5042676;28;20056;-85
2021/07/22 11:15:02;;;;;;;1.48;0.80;;;22.40;36.70;;;;;;5042322;28;20111;-84
2021/07/22 11:17:33;;;;;;;1.63;0.70;;;22.50;36.70;;;;;;5053470;28;20032;-85
2021/07/22 11:20:17;;;;;;;4.05;0.93;;;22.50;36.60;;;;;;5036196;28;20033;-84
2021/07/22 11:22:44;;;;;;;2.33;0.90;;;22.40;37.00;;;;;;5054214;28;20036;-85
2021/07/22 11:25:10;;;;;;;2.70;0.63;;;22.40;37.40;;;;;;5040412;28;20020;-82
2021/07/22 11:27:49;;;;;;;3.13;0.75;;;22.30;36.70;;;;;;5057744;28;20029;-82
2021/07/22 11:30:22;;;;;;;2.95;0.80;;;22.20;37.10;;;;;;5045691;28;20025;-83
2021/07/22 11:32:48;;;;;;;2.00;0.60;;;22.00;37.90;;;;;;5058592;28;20035;-84
2021/07/22 11:35:14;;;;;;;4.40;0.75;;;21.90;38.30;;;;;;5058807;28;20033;-85
2021/07/22 11:37:40;;;;;;;1.52;1.00;;;21.80;38.60;;;;;;5061099;28;20021;-85
2021/07/22 11:40:07;;;;;;;3.13;0.90;;;21.90;38.80;;;;;;5057932;28;20090;-84
2021/07/22 11:42:46;;;;;;;1.85;1.15;;;22.00;38.10;;;;;;5057221;28;20398;-83
2021/07/22 11:45:12;;;;;;;0.60;0.40;;;22.00;38.20;;;;;;5056903;28;20021;-82
2021/07/22 11:47:38;;;;;;;1.48;0.70;;;22.00;38.30;;;;;;5036172;28;20519;-83
2021/07/22 11:50:04;;;;;;;1.90;0.88;;;22.00;38.20;;;;;;5036963;28;20076;-83
2021/07/22 11:52:30;;;;;;;1.15;0.50;;;22.00;38.50;;;;;;5037542;28;20034;-86
2021/07/22 11:55:04;;;;;;;2.58;0.63;;;22.00;37.50;;;;;;5037505;28;20029;-84
2021/07/22 11:57:40;;;;;;;3.35;0.93;;;22.00;37.60;;;;;;5041011;28;20043;-83
2021/07/22 12:00:16;;;;;;;1.25;0.70;;;21.90;38.00;;;;;;5039605;28;20394;-85
2021/07/22 12:02:48;;;;;;;1.90;0.70;;;21.80;38.00;;;;;;5037736;28;20076;-84
2021/07/22 12:05:21;;;;;;;5.72;1.00;;;21.80;38.80;;;;;;5035980;28;20053;-85
2021/07/22 12:07:47;;;;;;;2.92;0.80;;;21.90;38.90;;;;;;5037056;28;20017;-84
2021/07/22 12:10:13;;;;;;;5.07;0.98;;;22.00;38.70;;;;;;5037553;28;20128;-83
2021/07/22 12:12:38;;;;;;;1.35;0.73;;;22.00;38.30;;;;;;5036687;28;20025;-85
2021/07/22 12:15:06;;;;;;;4.43;0.40;;;22.00;38.20;;;;;;5036739;28;20100;-83
2021/07/22 12:17:33;;;;;;;1.63;0.90;;;22.00;38.20;;;;;;5039038;28;20026;-82
2021/07/22 12:19:59;;;;;;;1.65;0.50;;;22.00;37.90;;;;;;5038769;28;20025;-83
2021/07/22 12:22:27;;;;;;;2.15;1.05;;;22.00;37.50;;;;;;5037766;28;20032;-83
2021/07/22 12:25:12;;;;;;;1.70;0.80;;;22.10;37.70;;;;;;5037205;28;20029;-84
2021/07/22 12:27:42;;;;;;;5.63;1.42;;;22.20;37.90;;;;;;5036765;28;20025;-83
2021/07/22 12:30:18;;;;;;;20.60;2.55;;;22.20;37.80;;;;;;5038060;28;20018;-83
2021/07/22 12:33:04;;;;;;;2.90;0.77;;;22.30;37.80;;;;;;5037050;28;20055;-84
2021/07/22 12:35:44;;;;;;;5.50;1.00;;;22.30;37.50;;;;;;5023534;28;20125;-84
2021/07/22 12:38:16;;;;;;;1.85;0.80;;;22.20;37.30;;;;;;5036199;28;20029;-82
2021/07/22 12:40:49;;;;;;;2.72;1.10;;;22.10;37.20;;;;;;5035831;28;20017;-82
2021/07/22 12:43:17;;;;;;;2.30;0.88;;;22.10;37.30;;;;;;5034698;28;20109;-83
2021/07/22 12:45:46;;;;;;;2.30;1.42;;;22.00;37.70;;;;;;5036088;28;20041;-82
2021/07/22 12:48:12;;;;;;;2.80;0.80;;;22.00;38.70;;;;;;5052748;28;20070;-84
2021/07/22 12:50:44;;;;;;;3.28;1.20;;;22.00;38.40;;;;;;5055724;28;20104;-82